Time;durP1;ratioP1;P1;durP2;ratioP2;P2;SDS_P1;SDS_P2;PMS_P1;PMS_P2;Temp;Humidity;BMP_temperature;BMP_pressure;BME280_temperature;BME280_humidity;BME280_pressure;Samples;Min_cycle;Max_cycle;Signal;HPM_P1;HPM_P2
2023/10/02 00:01:59;;;;;;;23.75;15.45;;;16.40;99.90;;;;;;7371407;19;20014;-68
2023/10/02 00:04:26;;;;;;;20.73;14.98;;;16.30;99.90;;;;;;7375443;19;20491;-69
2023/10/02 00:07:05;;;;;;;22.02;14.43;;;16.30;99.90;;;;;;7374703;19;20021;-69
2023/10/02 00:09:49;;;;;;;22.30;14.85;;;16.20;99.90;;;;;;7377001;19;20050;-69
2023/10/02 00:12:19;;;;;;;21.08;14.30;;;16.20;99.90;;;;;;7374029;19;20026;-69
2023/10/02 00:14:48;;;;;;;20.88;14.35;;;16.10;99.90;;;;;;7377196;19;20503;-69
2023/10/02 00:17:18;;;;;;;22.33;15.27;;;16.10;99.90;;;;;;7377902;19;20485;-71
2023/10/02 00:19:47;;;;;;;21.65;15.00;;;16.10;99.90;;;;;;7373723;19;20369;-71
2023/10/02 00:22:42;;;;;;;24.08;15.00;;;16.10;99.90;;;;;;7378551;19;20697;-72
2023/10/02 00:25:27;;;;;;;21.67;16.05;;;16.20;99.90;;;;;;7376618;19;20493;-71
2023/10/02 00:27:54;;;;;;;25.92;16.15;;;16.30;99.90;;;;;;7373806;19;20469;-71
2023/10/02 00:30:23;;;;;;;26.55;16.02;;;16.30;99.90;;;;;;7370001;19;20081;-71
2023/10/02 00:32:51;;;;;;;23.45;16.13;;;16.40;99.90;;;;;;7378171;19;20022;-71
2023/10/02 00:35:17;;;;;;;26.45;16.23;;;16.40;99.90;;;;;;7378630;19;20078;-70
2023/10/02 00:38:04;;;;;;;25.65;16.83;;;16.50;99.90;;;;;;7373403;19;20378;-71
2023/10/02 00:40:32;;;;;;;21.58;15.20;;;16.50;99.90;;;;;;7377277;19;20791;-72
2023/10/02 00:45:49;;;;;;;25.55;16.25;;;16.60;99.90;;;;;;7375697;19;20093;-72
2023/10/02 00:48:25;;;;;;;28.10;17.00;;;16.60;99.90;;;;;;7377323;19;20025;-69
2023/10/02 00:50:59;;;;;;;24.92;16.23;;;16.70;99.90;;;;;;7372896;19;20027;-70
2023/10/02 00:53:38;;;;;;;26.02;15.88;;;16.70;99.90;;;;;;7374321;19;20019;-69
2023/10/02 00:56:19;;;;;;;24.10;17.15;;;16.70;99.90;;;;;;7374005;19;20346;-72
2023/10/02 00:59:00;;;;;;;23.13;15.38;;;16.70;99.90;;;;;;7375068;19;20029;-72
2023/10/02 01:01:27;;;;;;;24.52;16.77;;;16.70;99.90;;;;;;7379378;19;20023;-69
2023/10/02 01:04:09;;;;;;;25.65;17.23;;;16.80;99.90;;;;;;7374506;19;20018;-69
2023/10/02 01:07:05;;;;;;;27.13;17.75;;;16.80;99.90;;;;;;7375694;19;20806;-69
2023/10/02 01:09:34;;;;;;;26.40;18.10;;;16.80;99.90;;;;;;7375022;19;20018;-69
2023/10/02 01:12:00;;;;;;;22.17;16.63;;;16.90;99.90;;;;;;7375036;19;20600;-69
2023/10/02 01:14:43;;;;;;;26.77;17.52;;;16.90;99.90;;;;;;7375307;19;20019;-69
2023/10/02 01:17:10;;;;;;;28.65;17.13;;;16.90;99.90;;;;;;7370679;19;20549;-69
2023/10/02 01:19:52;;;;;;;28.27;18.98;;;16.90;99.90;;;;;;7369550;19;20799;-69
2023/10/02 01:22:27;;;;;;;27.50;17.33;;;16.90;99.90;;;;;;7370132;19;20046;-69
2023/10/02 01:25:14;;;;;;;25.95;17.92;;;16.90;99.90;;;;;;7367300;19;20785;-69
2023/10/02 01:27:41;;;;;;;27.15;17.58;;;16.90;99.90;;;;;;7364308;19;20082;-69
2023/10/02 01:30:18;;;;;;;26.77;18.70;;;16.90;99.90;;;;;;7365065;19;20487;-69
2023/10/02 01:33:14;;;;;;;24.08;17.63;;;16.90;99.90;;;;;;7364342;19;20018;-69
2023/10/02 01:35:48;;;;;;;26.23;18.35;;;17.00;99.90;;;;;;7364400;19;20022;-69
2023/10/02 01:38:34;;;;;;;25.40;17.15;;;17.00;99.90;;;;;;7366885;19;20041;-69
2023/10/02 01:41:04;;;;;;;26.50;17.65;;;17.00;99.90;;;;;;7364844;19;20044;-71
2023/10/02 01:43:45;;;;;;;26.77;18.02;;;17.00;99.90;;;;;;7366745;19;20045;-70
2023/10/02 01:46:31;;;;;;;26.95;17.15;;;17.00;99.90;;;;;;7367101;19;20026;-70
2023/10/02 01:48:59;;;;;;;24.38;16.23;;;17.00;99.90;;;;;;7365976;19;20018;-68
2023/10/02 01:51:26;;;;;;;27.58;16.88;;;17.00;99.90;;;;;;7364549;19;20037;-73
2023/10/02 01:54:19;;;;;;;25.48;17.25;;;17.00;99.90;;;;;;7364826;19;20593;-70
2023/10/02 01:56:49;;;;;;;23.52;16.48;;;17.00;99.90;;;;;;7367530;19;20029;-70
2023/10/02 01:59:19;;;;;;;28.23;18.30;;;17.00;99.90;;;;;;7365323;19;20652;-70
2023/10/02 02:01:54;;;;;;;26.00;16.92;;;17.00;99.90;;;;;;7361973;19;20025;-71
2023/10/02 02:04:27;;;;;;;29.25;17.98;;;17.00;99.90;;;;;;7370135;19;20029;-72
2023/10/02 02:06:56;;;;;;;27.00;16.92;;;17.00;99.90;;;;;;7375376;19;20023;-70
2023/10/02 02:09:30;;;;;;;23.08;17.80;;;17.00;99.90;;;;;;7373446;19;20021;-71
2023/10/02 02:12:05;;;;;;;23.80;16.55;;;17.00;99.90;;;;;;7373605;19;20036;-71
2023/10/02 02:14:49;;;;;;;26.50;17.67;;;17.00;99.90;;;;;;7373368;19;20053;-70
2023/10/02 02:17:18;;;;;;;24.23;16.90;;;17.00;99.90;;;;;;7377947;19;20040;-69
2023/10/02 02:19:48;;;;;;;24.50;16.52;;;17.10;99.90;;;;;;7372942;19;20019;-69
2023/10/02 02:22:31;;;;;;;24.02;17.23;;;17.10;99.90;;;;;;7375670;19;20835;-71
2023/10/02 02:24:58;;;;;;;28.20;16.92;;;17.00;99.90;;;;;;7371538;19;20366;-69
2023/10/02 02:27:25;;;;;;;24.33;16.70;;;17.10;99.90;;;;;;7373369;19;20102;-69
2023/10/02 02:29:56;;;;;;;27.38;17.13;;;17.00;99.90;;;;;;7373999;19;20569;-70
2023/10/02 02:35:12;;;;;;;25.50;17.42;;;17.00;99.90;;;;;;7367165;19;19930;-71
2023/10/02 02:37:41;;;;;;;25.52;17.85;;;17.00;99.90;;;;;;7367458;19;20029;-72
2023/10/02 02:40:24;;;;;;;28.40;18.58;;;17.00;99.90;;;;;;7365602;19;20089;-71
2023/10/02 02:42:52;;;;;;;26.08;17.65;;;17.00;99.90;;;;;;7364734;19;20570;-69
2023/10/02 02:45:28;;;;;;;27.58;17.70;;;17.00;99.90;;;;;;7364239;19;20029;-69
2023/10/02 02:48:10;;;;;;;26.70;17.70;;;16.90;99.90;;;;;;7363565;19;20611;-69
2023/10/02 02:50:40;;;;;;;25.23;17.33;;;16.90;99.90;;;;;;7363147;19;20022;-69
2023/10/02 02:53:17;;;;;;;26.73;17.20;;;16.90;99.90;;;;;;7361928;19;20041;-69
2023/10/02 02:55:45;;;;;;;27.23;18.90;;;16.80;99.90;;;;;;7361791;19;20035;-72
2023/10/02 02:58:12;;;;;;;24.63;17.13;;;16.80;99.90;;;;;;7354861;19;20019;-71
2023/10/02 03:01:06;;;;;;;26.67;17.67;;;16.80;99.90;;;;;;7363715;19;20081;-72
2023/10/02 03:03:33;;;;;;;27.55;17.33;;;16.80;99.90;;;;;;7366516;19;20053;-73
2023/10/02 03:06:04;;;;;;;25.38;17.88;;;16.70;99.90;;;;;;7366637;19;20490;-71
2023/10/02 03:08:41;;;;;;;25.60;17.67;;;16.60;99.90;;;;;;7363810;19;20019;-68
2023/10/02 03:11:07;;;;;;;29.00;18.65;;;16.60;99.90;;;;;;7365542;19;20060;-69
2023/10/02 03:13:39;;;;;;;25.42;17.42;;;16.50;99.90;;;;;;7357288;19;20026;-72
2023/10/02 03:16:31;;;;;;;25.08;17.70;;;16.50;99.90;;;;;;7367022;19;20027;-71
2023/10/02 03:19:03;;;;;;;29.45;18.35;;;16.50;99.90;;;;;;7364714;19;20014;-69
2023/10/02 03:21:32;;;;;;;25.30;17.38;;;16.40;99.90;;;;;;7367274;19;20022;-69
2023/10/02 03:23:58;;;;;;;27.42;17.65;;;16.40;99.90;;;;;;7367916;19;20018;-71
2023/10/02 03:29:16;;;;;;;27.70;17.63;;;16.30;99.90;;;;;;7365051;19;20021;-72
2023/10/02 03:31:49;;;;;;;27.25;18.75;;;16.20;99.90;;;;;;7364065;19;20022;-71
2023/10/02 03:35:02;;;;;;;26.33;17.08;;;16.20;99.90;;;;;;7365102;19;20015;-69
2023/10/02 03:42:31;;;;;;;27.92;18.90;;;16.00;99.90;;;;;;7374638;19;20054;-69
2023/10/02 03:45:02;;;;;;;27.10;18.88;;;16.00;99.90;;;;;;7372491;19;20015;-69
2023/10/02 03:47:30;;;;;;;29.17;18.70;;;15.90;99.90;;;;;;7369904;19;20487;-68
2023/10/02 03:50:01;;;;;;;28.55;17.92;;;15.80;99.90;;;;;;7370467;19;20470;-71
2023/10/02 03:52:32;;;;;;;25.52;17.55;;;15.80;99.90;;;;;;7372670;19;20687;-72
2023/10/02 03:55:20;;;;;;;26.58;18.70;;;15.70;99.90;;;;;;7374637;19;20995;-71
2023/10/02 03:57:47;;;;;;;31.67;21.15;;;15.70;99.90;;;;;;7366899;19;21198;-72
2023/10/02 04:00:22;;;;;;;32.15;19.92;;;15.70;99.90;;;;;;7377345;19;20480;-72
2023/10/02 04:02:51;;;;;;;27.77;18.85;;;15.60;99.90;;;;;;7370768;19;20015;-71
2023/10/02 04:05:32;;;;;;;26.27;18.65;;;15.60;99.90;;;;;;7374281;19;20053;-69
2023/10/02 04:08:13;;;;;;;27.60;17.85;;;15.50;99.90;;;;;;7371923;19;20036;-71
2023/10/02 04:10:57;;;;;;;30.25;18.98;;;15.40;99.90;;;;;;7375420;19;20035;-71
2023/10/02 04:13:39;;;;;;;32.40;19.90;;;15.40;99.90;;;;;;7376635;19;20127;-71
2023/10/02 04:19:03;;;;;;;30.58;18.90;;;15.40;99.90;;;;;;7374256;19;20015;-71
2023/10/02 04:21:33;;;;;;;29.23;18.92;;;15.40;99.90;;;;;;7377128;19;20014;-71
2023/10/02 04:24:00;;;;;;;26.80;19.08;;;15.40;99.90;;;;;;7370994;19;20022;-69
2023/10/02 04:26:28;;;;;;;32.17;21.33;;;15.40;99.90;;;;;;7372211;19;20902;-72
2023/10/02 04:32:51;;;;;;;30.75;19.15;;;15.40;99.90;;;;;;7348561;19;20023;-68
2023/10/02 04:38:08;;;;;;;35.42;19.85;;;15.40;99.90;;;;;;7367517;19;20041;-68
2023/10/02 04:40:49;;;;;;;30.35;19.90;;;15.40;99.90;;;;;;7376747;19;20026;-69
2023/10/02 04:43:19;;;;;;;28.30;18.03;;;15.50;99.90;;;;;;7376813;19;20086;-68
2023/10/02 04:45:52;;;;;;;31.90;20.75;;;15.40;99.90;;;;;;7379689;19;20486;-68
2023/10/02 04:48:38;;;;;;;28.52;18.17;;;15.40;99.90;;;;;;7380061;19;20018;-68
2023/10/02 04:51:12;;;;;;;27.88;19.00;;;15.40;99.90;;;;;;7372965;19;20026;-67
2023/10/02 04:53:42;;;;;;;32.35;20.23;;;15.40;99.90;;;;;;7378790;19;20023;-70
2023/10/02 04:56:21;;;;;;;27.25;18.92;;;15.30;99.90;;;;;;7379658;19;20014;-71
2023/10/02 04:58:51;;;;;;;26.90;18.00;;;15.30;99.90;;;;;;7379016;19;20026;-70
2023/10/02 05:01:29;;;;;;;29.80;19.05;;;15.30;99.90;;;;;;7378985;19;20062;-70
2023/10/02 05:03:58;;;;;;;28.85;19.50;;;15.30;99.90;;;;;;7379127;19;20023;-71
2023/10/02 05:09:19;;;;;;;31.20;18.88;;;15.20;99.90;;;;;;7376013;19;20426;-70
2023/10/02 05:11:55;;;;;;;30.77;20.40;;;15.20;99.90;;;;;;7376930;19;20018;-70
2023/10/02 05:14:26;;;;;;;27.27;18.20;;;15.10;99.90;;;;;;7369725;19;20020;-69
2023/10/02 05:17:16;;;;;;;29.60;18.98;;;15.10;99.90;;;;;;7371580;19;20025;-69
2023/10/02 05:19:57;;;;;;;29.48;18.80;;;15.10;99.90;;;;;;7379004;19;20022;-67
2023/10/02 05:22:24;;;;;;;29.52;18.77;;;15.00;99.90;;;;;;7374576;19;20084;-70
2023/10/02 05:25:04;;;;;;;29.50;17.92;;;15.00;99.90;;;;;;7377425;19;20022;-70
2023/10/02 05:27:33;;;;;;;32.33;19.50;;;15.00;99.90;;;;;;7377058;19;20501;-70
2023/10/02 05:30:14;;;;;;;28.60;18.63;;;15.00;99.90;;;;;;7374806;19;21115;-70
2023/10/02 05:32:43;;;;;;;31.05;19.40;;;15.00;99.90;;;;;;7377561;19;20007;-69
2023/10/02 05:37:41;;;;;;;28.13;19.27;;;15.00;99.90;;;;;;7377016;19;20029;-68
2023/10/02 05:45:39;;;;;;;28.50;19.40;;;14.90;99.90;;;;;;7376511;19;20014;-70
2023/10/02 05:48:08;;;;;;;29.92;19.83;;;14.80;99.90;;;;;;7374320;19;20903;-69
2023/10/02 05:50:38;;;;;;;30.38;20.25;;;14.80;99.90;;;;;;7370649;19;20030;-69
2023/10/02 05:53:04;;;;;;;32.50;20.33;;;14.80;99.90;;;;;;7373861;19;20014;-69
2023/10/02 05:55:56;;;;;;;31.45;20.02;;;14.80;99.90;;;;;;7377969;19;20094;-69
2023/10/02 05:58:27;;;;;;;27.50;18.58;;;14.80;99.90;;;;;;7377744;19;20019;-69
2023/10/02 06:00:54;;;;;;;29.45;20.02;;;14.80;99.90;;;;;;7375694;19;20025;-69
2023/10/02 06:03:21;;;;;;;28.50;20.52;;;14.90;99.90;;;;;;7378526;19;20022;-70
2023/10/02 06:06:10;;;;;;;29.38;19.20;;;14.90;99.90;;;;;;7379047;19;20391;-70
2023/10/02 06:08:34;;;;;;;29.42;19.17;;;14.90;99.90;;;;;;7375308;19;20018;-70
2023/10/02 06:11:08;;;;;;;31.77;19.80;;;15.00;99.90;;;;;;7372405;19;20030;-71
2023/10/02 06:13:37;;;;;;;31.65;19.58;;;15.00;99.90;;;;;;7378963;19;20789;-71
2023/10/02 06:16:07;;;;;;;32.13;20.95;;;15.10;99.90;;;;;;7374750;19;20021;-71
2023/10/02 06:18:33;;;;;;;31.48;19.70;;;15.10;99.90;;;;;;7376269;19;20028;-68
2023/10/02 06:21:00;;;;;;;28.52;19.73;;;15.20;99.90;;;;;;7377937;19;20043;-70
2023/10/02 06:23:37;;;;;;;30.60;20.25;;;15.20;99.90;;;;;;7376071;19;20014;-70
2023/10/02 06:26:10;;;;;;;29.48;18.23;;;15.30;99.90;;;;;;7375776;19;20396;-69
2023/10/02 06:28:37;;;;;;;32.20;19.45;;;15.40;99.90;;;;;;7374668;19;20381;-70
2023/10/02 06:31:31;;;;;;;31.40;20.13;;;15.40;99.90;;;;;;7376636;19;20489;-70
2023/10/02 06:33:57;;;;;;;29.13;19.45;;;15.60;99.90;;;;;;7372432;19;20025;-72
2023/10/02 06:36:24;;;;;;;29.98;20.13;;;15.60;99.90;;;;;;7376894;19;20022;-69
2023/10/02 06:38:54;;;;;;;28.70;19.67;;;15.70;99.90;;;;;;7373597;19;20387;-69
2023/10/02 06:41:23;;;;;;;26.60;19.02;;;15.80;99.90;;;;;;7377460;19;20019;-68
2023/10/02 06:43:53;;;;;;;31.27;19.98;;;15.80;99.90;;;;;;7375940;19;20725;-69
2023/10/02 06:46:21;;;;;;;28.23;18.58;;;15.90;99.90;;;;;;7373832;19;20038;-69
2023/10/02 06:48:54;;;;;;;34.08;20.42;;;16.00;99.90;;;;;;7375166;19;20810;-70
2023/10/02 06:51:21;;;;;;;26.80;18.42;;;16.10;99.90;;;;;;7372355;19;20061;-69
2023/10/02 06:53:47;;;;;;;30.60;20.05;;;16.20;99.90;;;;;;7374537;19;20018;-69
2023/10/02 06:56:18;;;;;;;29.33;18.67;;;16.20;99.90;;;;;;7372856;19;20018;-70
2023/10/02 06:58:53;;;;;;;28.43;18.57;;;16.30;99.90;;;;;;7373487;19;20040;-68
2023/10/02 07:01:19;;;;;;;28.63;17.27;;;16.20;99.90;;;;;;7375336;19;20833;-70
2023/10/02 07:04:12;;;;;;;29.05;19.05;;;16.30;99.90;;;;;;7372335;19;20041;-70
2023/10/02 07:06:41;;;;;;;29.48;18.08;;;16.30;99.90;;;;;;7375388;19;20019;-70
2023/10/02 07:09:11;;;;;;;26.80;17.95;;;16.40;99.90;;;;;;7371896;19;20035;-71
2023/10/02 07:11:47;;;;;;;27.85;18.70;;;16.60;99.90;;;;;;7375960;19;20018;-70
2023/10/02 07:14:14;;;;;;;28.58;19.38;;;16.70;99.90;;;;;;7371382;19;20019;-72
2023/10/02 07:16:41;;;;;;;25.98;17.40;;;16.90;99.90;;;;;;7375254;19;20031;-70
2023/10/02 07:19:09;;;;;;;27.58;18.67;;;17.10;99.90;;;;;;7371789;19;20010;-71
2023/10/02 07:21:40;;;;;;;23.55;17.40;;;17.20;99.90;;;;;;7374394;19;20022;-71
2023/10/02 07:24:25;;;;;;;26.53;16.10;;;17.40;99.90;;;;;;7372842;19;20026;-71
2023/10/02 07:26:51;;;;;;;27.63;17.80;;;17.50;99.90;;;;;;7375836;19;20018;-71
2023/10/02 07:29:19;;;;;;;24.25;16.95;;;17.70;99.90;;;;;;7372736;19;20370;-71
2023/10/02 07:31:46;;;;;;;29.02;17.67;;;17.70;99.90;;;;;;7370805;19;20015;-71
2023/10/02 07:34:15;;;;;;;24.60;17.30;;;17.80;99.90;;;;;;7372043;19;20024;-72
2023/10/02 07:36:45;;;;;;;25.45;17.98;;;18.10;99.90;;;;;;7373146;19;20011;-71
2023/10/02 07:39:35;;;;;;;26.92;17.23;;;18.20;99.90;;;;;;7372105;19;20018;-71
2023/10/02 07:42:04;;;;;;;26.10;17.48;;;18.50;99.90;;;;;;7373413;19;20027;-72
2023/10/02 07:44:36;;;;;;;21.58;17.02;;;18.60;99.90;;;;;;7373428;19;20033;-72
2023/10/02 07:47:10;;;;;;;23.35;16.70;;;18.80;99.90;;;;;;7370379;19;20032;-72
2023/10/02 07:49:40;;;;;;;23.58;16.92;;;18.90;99.90;;;;;;7370940;19;20010;-66
2023/10/02 07:52:08;;;;;;;28.27;17.50;;;19.10;99.90;;;;;;7368597;19;20017;-70
2023/10/02 07:54:49;;;;;;;25.52;17.27;;;19.30;99.90;;;;;;7372886;19;20022;-71
2023/10/02 07:57:18;;;;;;;26.37;17.03;;;19.40;99.90;;;;;;7371973;19;20411;-71
2023/10/02 07:59:44;;;;;;;25.13;16.95;;;19.60;99.90;;;;;;7370513;19;20019;-71
2023/10/02 08:05:10;;;;;;;21.08;15.45;;;19.70;99.90;;;;;;7370883;19;20015;-71
2023/10/02 08:07:38;;;;;;;21.95;15.50;;;19.80;99.90;;;;;;7370667;19;20125;-71
2023/10/02 08:10:05;;;;;;;24.77;16.27;;;19.90;99.90;;;;;;7368718;19;20102;-71
2023/10/02 08:12:34;;;;;;;23.05;15.98;;;20.20;99.90;;;;;;7373329;19;20360;-71
2023/10/02 08:15:26;;;;;;;23.80;15.85;;;20.30;99.90;;;;;;7371082;19;20010;-71
2023/10/02 08:20:40;;;;;;;24.50;16.77;;;20.70;99.90;;;;;;7375181;19;20097;-71
2023/10/02 08:23:24;;;;;;;22.23;14.80;;;21.00;99.90;;;;;;7376374;19;20086;-70
2023/10/02 08:26:02;;;;;;;25.45;16.58;;;21.20;99.90;;;;;;7379367;19;20027;-71
2023/10/02 08:28:29;;;;;;;26.60;17.45;;;21.20;99.90;;;;;;7381652;19;20065;-72
2023/10/02 08:31:00;;;;;;;26.52;18.52;;;21.30;99.90;;;;;;7375690;19;20029;-72
2023/10/02 08:33:27;;;;;;;24.92;15.95;;;21.10;99.90;;;;;;7381451;19;20037;-73
2023/10/02 08:35:54;;;;;;;23.08;15.93;;;21.40;99.90;;;;;;7377429;19;20467;-72
2023/10/02 08:38:23;;;;;;;24.08;16.42;;;21.60;99.90;;;;;;7380911;19;20439;-72
2023/10/02 08:40:58;;;;;;;24.90;16.40;;;21.80;99.90;;;;;;7376184;19;20043;-72
2023/10/02 08:43:26;;;;;;;26.30;16.15;;;22.10;99.90;;;;;;7378060;19;20011;-73
2023/10/02 08:45:53;;;;;;;26.23;17.33;;;22.10;99.90;;;;;;7382621;19;20018;-72
2023/10/02 08:48:20;;;;;;;22.45;15.73;;;21.90;99.90;;;;;;7380106;19;20048;-72
2023/10/02 08:50:48;;;;;;;25.75;16.65;;;21.40;99.90;;;;;;7378256;19;20689;-71
2023/10/02 08:53:20;;;;;;;26.92;18.15;;;21.10;99.90;;;;;;7378668;19;20010;-72
2023/10/02 08:58:17;;;;;;;24.33;16.90;;;20.80;99.90;;;;;;7376246;19;20026;-71
2023/10/02 09:03:42;;;;;;;;;;;20.90;99.90;;;;;;7381241;19;20021;-67
2023/10/02 09:09:36;;;;;;;28.85;18.85;;;20.80;99.90;;;;;;7375345;19;20577;-74
2023/10/02 09:12:03;;;;;;;26.92;17.33;;;20.90;99.90;;;;;;7378162;19;20379;-74
2023/10/02 09:19:53;;;;;;;29.55;18.08;;;20.80;99.90;;;;;;7377904;19;20026;-70
2023/10/02 09:22:23;;;;;;;27.90;18.77;;;20.60;99.90;;;;;;7375909;19;20033;-71
2023/10/02 09:25:09;;;;;;;29.40;19.60;;;20.70;99.90;;;;;;7377707;19;20798;-71
2023/10/02 09:27:56;;;;;;;31.55;20.85;;;20.70;99.90;;;;;;7375364;19;20078;-71
2023/10/02 09:30:49;;;;;;;34.95;21.60;;;21.20;99.90;;;;;;7375126;19;20023;-70
2023/10/02 09:33:22;;;;;;;37.47;25.23;;;21.30;99.90;;;;;;7377538;19;20018;-71
2023/10/02 09:35:52;;;;;;;32.47;23.63;;;21.50;99.90;;;;;;7372853;19;20015;-73
2023/10/02 09:38:23;;;;;;;37.05;23.30;;;21.90;99.90;;;;;;7378255;19;20019;-73
2023/10/02 09:40:54;;;;;;;33.30;22.80;;;22.10;99.90;;;;;;7374950;19;20022;-68
2023/10/02 09:43:49;;;;;;;38.20;23.50;;;22.40;99.90;;;;;;7378310;19;20022;-74
2023/10/02 09:46:22;;;;;;;34.13;23.25;;;22.70;99.90;;;;;;7381012;19;20022;-72
2023/10/02 09:49:21;;;;;;;32.75;23.33;;;23.20;99.90;;;;;;7378432;19;20121;-74
2023/10/02 09:52:23;;;;;;;31.58;22.92;;;23.40;99.90;;;;;;7372491;19;20022;-74
2023/10/02 09:55:10;;;;;;;31.50;22.48;;;23.20;99.90;;;;;;7378271;19;20886;-74
2023/10/02 09:57:51;;;;;;;31.35;22.88;;;22.70;99.90;;;;;;7377313;19;20070;-73
2023/10/02 10:03:24;;;;;;;27.25;19.80;;;21.90;99.90;;;;;;7377414;19;20890;-74
2023/10/02 10:06:08;;;;;;;30.23;21.23;;;21.80;99.90;;;;;;7377869;19;20010;-73
2023/10/02 10:11:42;;;;;;;33.63;22.15;;;21.60;99.90;;;;;;7370758;19;20398;-75
2023/10/02 10:17:25;;;;;;;31.27;22.33;;;21.90;99.90;;;;;;7374972;19;20378;-73
2023/10/02 10:20:07;;;;;;;33.78;22.27;;;22.30;99.90;;;;;;7373699;19;20745;-74
2023/10/02 10:22:36;;;;;;;29.25;19.90;;;22.40;99.90;;;;;;7372774;19;20022;-73
2023/10/02 10:27:55;;;;;;;29.90;21.08;;;21.80;99.90;;;;;;7377561;19;20601;-73
2023/10/02 10:30:24;;;;;;;32.58;21.75;;;21.60;99.90;;;;;;7376274;19;20054;-73
2023/10/02 10:33:16;;;;;;;34.67;22.88;;;21.60;99.90;;;;;;7377321;19;20022;-73
2023/10/02 10:35:55;;;;;;;37.75;22.02;;;21.80;99.90;;;;;;7371743;19;20074;-72
2023/10/02 10:41:35;;;;;;;32.50;22.50;;;22.40;99.90;;;;;;7374547;19;20035;-74
2023/10/02 10:44:08;;;;;;;32.92;22.80;;;22.80;99.90;;;;;;7376500;19;20041;-74
2023/10/02 10:46:37;;;;;;;32.08;21.33;;;22.90;99.90;;;;;;7379931;19;20471;-76
2023/10/02 10:49:08;;;;;;;31.25;21.08;;;23.40;99.90;;;;;;7375056;19;20528;-74
2023/10/02 10:51:40;;;;;;;30.38;21.48;;;24.20;99.90;;;;;;7375452;19;20039;-75
2023/10/02 10:54:13;;;;;;;27.48;20.65;;;25.10;99.90;;;;;;7377871;19;20096;-75
2023/10/02 10:56:44;;;;;;;30.52;20.98;;;25.70;99.90;;;;;;7380677;19;20036;-71
2023/10/02 10:59:24;;;;;;;29.75;19.73;;;25.50;99.90;;;;;;7375272;19;20481;-72
2023/10/02 11:02:10;;;;;;;28.70;19.03;;;25.50;99.90;;;;;;7373476;19;20011;-72
2023/10/02 11:04:40;;;;;;;24.85;18.35;;;25.10;99.90;;;;;;7376749;19;20363;-72
2023/10/02 11:07:19;;;;;;;26.35;20.00;;;24.90;99.90;;;;;;7375169;19;20010;-71
2023/10/02 11:10:14;;;;;;;32.85;24.77;;;24.80;99.90;;;;;;7376976;19;20388;-66
2023/10/02 11:12:43;;;;;;;28.92;20.38;;;24.70;99.90;;;;;;7372388;19;20027;-69
2023/10/02 11:15:43;;;;;;;30.58;21.60;;;24.50;99.90;;;;;;7365795;19;20042;-68
2023/10/02 11:18:20;;;;;;;29.10;19.67;;;24.20;99.90;;;;;;7374432;19;20620;-69
2023/10/02 11:20:49;;;;;;;26.98;20.58;;;23.70;99.90;;;;;;7378553;19;20018;-76
2023/10/02 11:23:45;;;;;;;29.65;21.30;;;23.70;99.90;;;;;;7378938;19;20449;-77
2023/10/02 11:26:13;;;;;;;30.30;22.42;;;23.60;99.90;;;;;;7380830;19;20044;-70
2023/10/02 11:28:49;;;;;;;33.40;22.25;;;23.30;99.90;;;;;;7375818;19;20018;-73
2023/10/02 11:31:32;;;;;;;31.00;22.42;;;23.40;99.90;;;;;;7372771;19;20085;-71
2023/10/02 11:34:07;;;;;;;31.55;21.65;;;23.20;99.90;;;;;;7371509;19;20033;-71
2023/10/02 11:36:36;;;;;;;31.45;21.08;;;23.00;99.90;;;;;;7370965;19;20025;-70
2023/10/02 11:39:50;;;;;;;26.10;20.48;;;23.00;99.90;;;;;;7374181;19;20021;-70
2023/10/02 11:41:59;;;;;;;32.08;22.40;;;23.00;99.90;;;;;;7367746;19;20086;-70
2023/10/02 11:44:26;;;;;;;31.05;21.88;;;22.90;99.90;;;;;;7376201;19;20018;-76
2023/10/02 11:46:54;;;;;;;30.75;22.27;;;22.90;99.90;;;;;;7376726;19;20010;-76
2023/10/02 11:49:20;;;;;;;33.08;21.85;;;22.90;99.90;;;;;;7373119;19;20427;-70
2023/10/02 11:51:47;;;;;;;31.73;20.88;;;22.90;99.90;;;;;;7371206;19;20380;-70
2023/10/02 11:54:17;;;;;;;31.70;21.95;;;22.90;99.90;;;;;;7371659;19;20514;-70
2023/10/02 11:56:46;;;;;;;29.00;21.17;;;22.90;99.90;;;;;;7371179;19;20021;-70
2023/10/02 11:59:16;;;;;;;32.30;20.40;;;22.80;99.90;;;;;;7379791;19;20035;-76
2023/10/02 12:01:47;;;;;;;32.90;21.25;;;22.80;99.90;;;;;;7377113;19;20018;-77
2023/10/02 12:04:14;;;;;;;33.28;20.98;;;22.90;99.90;;;;;;7378328;19;20119;-69
2023/10/02 12:06:42;;;;;;;28.88;19.85;;;22.90;99.90;;;;;;7381691;19;20030;-75
2023/10/02 12:09:17;;;;;;;29.23;20.92;;;22.90;99.90;;;;;;7384868;19;20048;-75
2023/10/02 12:11:44;;;;;;;29.85;21.30;;;23.00;99.90;;;;;;7375599;19;20014;-70
2023/10/02 12:14:10;;;;;;;29.77;18.95;;;23.00;99.90;;;;;;7380802;19;20018;-70
2023/10/02 12:16:41;;;;;;;26.80;18.52;;;23.40;99.90;;;;;;7378617;19;20023;-70
2023/10/02 12:19:10;;;;;;;27.15;19.40;;;23.80;99.90;;;;;;7377740;19;20018;-70
2023/10/02 12:21:37;;;;;;;28.00;19.88;;;24.30;99.90;;;;;;7378072;19;20018;-65
2023/10/02 12:24:07;;;;;;;26.45;17.58;;;24.60;99.90;;;;;;7379446;19;20022;-65
2023/10/02 12:26:34;;;;;;;24.00;16.25;;;25.10;99.90;;;;;;7376967;19;20014;-65
2023/10/02 12:29:00;;;;;;;21.45;14.90;;;25.40;99.90;;;;;;7379133;19;20011;-66
2023/10/02 12:31:27;;;;;;;22.50;15.88;;;25.50;99.90;;;;;;7374450;19;20659;-65
2023/10/02 12:33:53;;;;;;;21.23;15.02;;;25.70;99.90;;;;;;7376968;19;20054;-64
2023/10/02 12:36:26;;;;;;;22.73;14.35;;;25.40;99.90;;;;;;7379555;19;20019;-71
2023/10/02 12:38:53;;;;;;;20.63;12.98;;;25.50;99.90;;;;;;7384359;19;20030;-70
2023/10/02 12:41:24;;;;;;;23.45;16.00;;;25.40;99.90;;;;;;7381707;19;20014;-73
2023/10/02 12:43:58;;;;;;;;;;;25.20;99.90;;;;;;7379239;19;20010;-72
2023/10/02 12:46:26;;;;;;;25.20;14.70;;;25.20;99.90;;;;;;7374110;19;19918;-65
2023/10/02 12:48:57;;;;;;;23.25;14.43;;;25.60;99.90;;;;;;7379086;19;20015;-65
2023/10/02 12:51:25;;;;;;;20.60;13.48;;;26.10;99.90;;;;;;7378173;19;20047;-65
2023/10/02 12:53:52;;;;;;;20.40;13.50;;;26.40;99.90;;;;;;7379501;19;20019;-65
2023/10/02 12:56:20;;;;;;;21.83;12.50;;;26.60;99.90;;;;;;7377764;19;20018;-65
2023/10/02 12:58:48;;;;;;;19.85;13.10;;;26.70;99.90;;;;;;7377187;19;20047;-72
2023/10/02 13:01:19;;;;;;;19.60;13.23;;;26.60;99.90;;;;;;7378902;19;20041;-72
2023/10/02 13:03:46;;;;;;;20.70;12.10;;;26.40;99.90;;;;;;7382143;19;20018;-73
2023/10/02 13:06:13;;;;;;;19.75;12.75;;;26.20;99.90;;;;;;7378514;19;20584;-65
2023/10/02 13:08:42;;;;;;;18.90;12.55;;;26.50;99.90;;;;;;7378145;19;20026;-70
2023/10/02 13:11:13;;;;;;;17.02;12.02;;;26.70;99.90;;;;;;7373064;19;20461;-67
2023/10/02 13:13:44;;;;;;;20.48;13.88;;;27.00;99.90;;;;;;7388846;19;20371;-65
2023/10/02 13:16:12;;;;;;;20.42;13.73;;;27.10;99.90;;;;;;7376727;19;20018;-65
2023/10/02 13:18:39;;;;;;;21.98;14.15;;;27.10;99.90;;;;;;7377692;19;20078;-65
2023/10/02 13:21:10;;;;;;;19.33;13.50;;;26.50;99.90;;;;;;7376325;19;20022;-66
2023/10/02 13:23:37;;;;;;;19.70;13.70;;;26.50;99.90;;;;;;7375491;19;20010;-66
2023/10/02 13:26:10;;;;;;;21.45;13.60;;;26.60;99.90;;;;;;7376822;19;20022;-65
2023/10/02 13:28:38;;;;;;;20.00;12.23;;;26.60;99.90;;;;;;7376913;19;20030;-72
2023/10/02 13:31:12;;;;;;;20.45;12.25;;;27.10;99.90;;;;;;7373106;19;20007;-71
2023/10/02 13:33:51;;;;;;;18.65;12.25;;;27.30;99.90;;;;;;7377411;19;20011;-72
2023/10/02 13:36:23;;;;;;;19.15;13.68;;;27.30;99.90;;;;;;7378628;19;20887;-71
2023/10/02 13:38:56;;;;;;;19.13;11.25;;;27.30;99.90;;;;;;7381557;19;20024;-71
2023/10/02 13:41:24;;;;;;;16.95;11.88;;;27.10;99.90;;;;;;7380675;19;20369;-71
2023/10/02 13:43:55;;;;;;;22.45;12.23;;;26.80;99.90;;;;;;7378549;19;20019;-70
2023/10/02 13:46:22;;;;;;;18.33;11.25;;;26.60;99.90;;;;;;7376198;19;20757;-71
2023/10/02 13:48:53;;;;;;;20.88;12.15;;;26.30;99.90;;;;;;7377775;19;20056;-71
2023/10/02 13:51:21;;;;;;;22.23;13.32;;;26.00;99.90;;;;;;7375856;19;20046;-71
2023/10/02 13:53:49;;;;;;;18.58;12.15;;;26.00;99.90;;;;;;7376156;19;20362;-71
2023/10/02 13:56:17;;;;;;;20.58;12.93;;;25.70;99.90;;;;;;7376302;19;20064;-71
2023/10/02 13:58:50;;;;;;;20.77;12.60;;;25.60;99.90;;;;;;7380246;19;20018;-71
2023/10/02 14:01:24;;;;;;;20.15;13.32;;;25.70;99.90;;;;;;7382207;19;20050;-71
2023/10/02 14:03:52;;;;;;;19.33;12.60;;;25.60;99.90;;;;;;7377406;19;20025;-72
2023/10/02 14:06:23;;;;;;;19.33;12.77;;;25.60;99.90;;;;;;7375038;19;20022;-71
2023/10/02 14:08:49;;;;;;;23.70;14.57;;;25.40;99.90;;;;;;7375972;19;20014;-72